sensor_id;sensor_type;location;lat;lon;timestamp;temperature;humidity
15452;DHT22;7827;53.594;9.938;2022-12-18T00:00:28;-3.20;99.90
15452;DHT22;7827;53.594;9.938;2022-12-18T00:02:57;-3.20;99.90
15452;DHT22;7827;53.594;9.938;2022-12-18T00:05:26;-3.20;99.90
15452;DHT22;7827;53.594;9.938;2022-12-18T00:07:54;-3.30;99.90
15452;DHT22;7827;53.594;9.938;2022-12-18T00:10:23;-3.30;99.90
15452;DHT22;7827;53.594;9.938;2022-12-18T00:12:51;-3.40;99.90
15452;DHT22;7827;53.594;9.938;2022-12-18T00:15:19;-3.50;99.90
15452;DHT22;7827;53.594;9.938;2022-12-18T00:17:48;-3.50;99.90
15452;DHT22;7827;53.594;9.938;2022-12-18T00:20:18;-3.60;99.90
15452;DHT22;7827;53.594;9.938;2022-12-18T00:22:52;-3.50;99.90
15452;DHT22;7827;53.594;9.938;2022-12-18T00:25:20;-3.40;99.90
15452;DHT22;7827;53.594;9.938;2022-12-18T00:27:49;-3.40;99.90
15452;DHT22;7827;53.594;9.938;2022-12-18T00:30:19;-3.40;99.90
15452;DHT22;7827;53.594;9.938;2022-12-18T00:32:47;-3.40;99.90
15452;DHT22;7827;53.594;9.938;2022-12-18T00:35:15;-3.50;99.90
15452;DHT22;7827;53.594;9.938;2022-12-18T00:37:47;-3.50;99.90
15452;DHT22;7827;53.594;9.938;2022-12-18T00:40:15;-3.40;99.90
15452;DHT22;7827;53.594;9.938;2022-12-18T00:42:43;-3.50;99.90
15452;DHT22;7827;53.594;9.938;2022-12-18T00:45:23;-3.50;99.90
15452;DHT22;7827;53.594;9.938;2022-12-18T00:47:52;-3.40;99.90
15452;DHT22;7827;53.594;9.938;2022-12-18T00:50:21;-3.30;99.90
15452;DHT22;7827;53.594;9.938;2022-12-18T00:52:51;-3.30;99.90
15452;DHT22;7827;53.594;9.938;2022-12-18T00:55:20;-3.20;99.90
15452;DHT22;7827;53.594;9.938;2022-12-18T00:57:48;-3.20;99.90
15452;DHT22;7827;53.594;9.938;2022-12-18T01:00:18;-3.30;99.90
15452;DHT22;7827;53.594;9.938;2022-12-18T01:02:47;-3.30;99.90
15452;DHT22;7827;53.594;9.938;2022-12-18T01:05:15;-3.30;99.90
15452;DHT22;7827;53.594;9.938;2022-12-18T01:07:44;-3.40;99.90
15452;DHT22;7827;53.594;9.938;2022-12-18T01:10:14;-3.50;99.90
15452;DHT22;7827;53.594;9.938;2022-12-18T01:12:42;-3.50;99.90
15452;DHT22;7827;53.594;9.938;2022-12-18T01:15:12;-3.60;99.90
15452;DHT22;7827;53.594;9.938;2022-12-18T01:17:43;-3.60;99.90
15452;DHT22;7827;53.594;9.938;2022-12-18T01:20:12;-3.60;99.90
15452;DHT22;7827;53.594;9.938;2022-12-18T01:22:41;-3.50;99.90
15452;DHT22;7827;53.594;9.938;2022-12-18T01:25:09;-3.60;99.90
15452;DHT22;7827;53.594;9.938;2022-12-18T01:27:39;-3.50;99.90
15452;DHT22;7827;53.594;9.938;2022-12-18T01:30:08;-3.50;99.90
15452;DHT22;7827;53.594;9.938;2022-12-18T01:32:37;-3.40;99.90
15452;DHT22;7827;53.594;9.938;2022-12-18T01:35:06;-3.50;99.90
15452;DHT22;7827;53.594;9.938;2022-12-18T01:37:35;-3.50;99.90
15452;DHT22;7827;53.594;9.938;2022-12-18T01:40:04;-3.60;99.90
15452;DHT22;7827;53.594;9.938;2022-12-18T01:42:33;-3.60;99.90
15452;DHT22;7827;53.594;9.938;2022-12-18T01:45:22;-3.50;99.90
15452;DHT22;7827;53.594;9.938;2022-12-18T01:47:54;-3.50;99.90
15452;DHT22;7827;53.594;9.938;2022-12-18T01:50:29;-3.50;99.90
15452;DHT22;7827;53.594;9.938;2022-12-18T01:53:05;-3.60;99.90
15452;DHT22;7827;53.594;9.938;2022-12-18T01:55:37;-3.60;99.90
15452;DHT22;7827;53.594;9.938;2022-12-18T01:58:09;-3.60;99.90
15452;DHT22;7827;53.594;9.938;2022-12-18T02:00:39;-3.60;99.90
15452;DHT22;7827;53.594;9.938;2022-12-18T02:03:08;-3.70;99.90
15452;DHT22;7827;53.594;9.938;2022-12-18T02:05:44;-3.70;99.90
15452;DHT22;7827;53.594;9.938;2022-12-18T02:08:20;-3.70;99.90
15452;DHT22;7827;53.594;9.938;2022-12-18T02:10:59;-3.70;99.90
15452;DHT22;7827;53.594;9.938;2022-12-18T02:13:38;-3.70;99.90
15452;DHT22;7827;53.594;9.938;2022-12-18T02:16:21;-3.80;99.90
15452;DHT22;7827;53.594;9.938;2022-12-18T02:18:56;-3.70;99.90
15452;DHT22;7827;53.594;9.938;2022-12-18T02:21:32;-3.80;99.90
15452;DHT22;7827;53.594;9.938;2022-12-18T02:24:21;-3.90;99.90
15452;DHT22;7827;53.594;9.938;2022-12-18T02:27:02;-3.90;99.90
15452;DHT22;7827;53.594;9.938;2022-12-18T02:29:36;-4.00;99.90
15452;DHT22;7827;53.594;9.938;2022-12-18T02:32:11;-4.00;99.90
15452;DHT22;7827;53.594;9.938;2022-12-18T02:34:45;-3.90;99.90
15452;DHT22;7827;53.594;9.938;2022-12-18T02:37:18;-3.90;99.90
15452;DHT22;7827;53.594;9.938;2022-12-18T02:39:49;-3.90;99.90
15452;DHT22;7827;53.594;9.938;2022-12-18T02:42:24;-3.90;99.90
15452;DHT22;7827;53.594;9.938;2022-12-18T02:44:53;-3.80;99.90
15452;DHT22;7827;53.594;9.938;2022-12-18T02:47:28;-3.90;99.90
15452;DHT22;7827;53.594;9.938;2022-12-18T02:50:04;-3.90;99.90
15452;DHT22;7827;53.594;9.938;2022-12-18T02:52:41;-3.90;99.90
15452;DHT22;7827;53.594;9.938;2022-12-18T02:55:28;-3.90;99.90
15452;DHT22;7827;53.594;9.938;2022-12-18T02:58:14;-4.00;99.90
15452;DHT22;7827;53.594;9.938;2022-12-18T03:00:53;-4.10;99.90
15452;DHT22;7827;53.594;9.938;2022-12-18T03:03:31;-4.10;99.90
15452;DHT22;7827;53.594;9.938;2022-12-18T03:06:10;-4.10;99.90
15452;DHT22;7827;53.594;9.938;2022-12-18T03:08:46;-4.10;99.90
15452;DHT22;7827;53.594;9.938;2022-12-18T03:11:18;-4.00;99.90
15452;DHT22;7827;53.594;9.938;2022-12-18T03:14:09;-4.00;99.90
15452;DHT22;7827;53.594;9.938;2022-12-18T03:16:41;-4.00;99.90
15452;DHT22;7827;53.594;9.938;2022-12-18T03:19:14;-4.00;99.90
15452;DHT22;7827;53.594;9.938;2022-12-18T03:21:51;-4.00;99.90
15452;DHT22;7827;53.594;9.938;2022-12-18T03:24:26;-4.10;99.90
15452;DHT22;7827;53.594;9.938;2022-12-18T03:27:00;-4.20;99.90
15452;DHT22;7827;53.594;9.938;2022-12-18T03:29:35;-4.20;99.90
15452;DHT22;7827;53.594;9.938;2022-12-18T03:32:11;-4.20;99.90
15452;DHT22;7827;53.594;9.938;2022-12-18T03:34:44;-4.20;99.90
15452;DHT22;7827;53.594;9.938;2022-12-18T03:37:19;-4.30;99.90
15452;DHT22;7827;53.594;9.938;2022-12-18T03:39:48;-4.30;99.90
15452;DHT22;7827;53.594;9.938;2022-12-18T03:42:23;-4.30;99.90
15452;DHT22;7827;53.594;9.938;2022-12-18T03:45:09;-4.30;99.90
15452;DHT22;7827;53.594;9.938;2022-12-18T03:47:54;-4.30;99.90
15452;DHT22;7827;53.594;9.938;2022-12-18T03:50:37;-4.30;99.90
15452;DHT22;7827;53.594;9.938;2022-12-18T03:53:23;-4.30;99.90
15452;DHT22;7827;53.594;9.938;2022-12-18T03:56:01;-4.30;99.90
15452;DHT22;7827;53.594;9.938;2022-12-18T03:58:38;-4.30;99.90
15452;DHT22;7827;53.594;9.938;2022-12-18T04:01:25;-4.30;99.90
15452;DHT22;7827;53.594;9.938;2022-12-18T04:04:00;-4.30;99.90
15452;DHT22;7827;53.594;9.938;2022-12-18T04:06:33;-4.40;99.90
15452;DHT22;7827;53.594;9.938;2022-12-18T04:09:04;-4.40;99.90
15452;DHT22;7827;53.594;9.938;2022-12-18T04:11:37;-4.50;99.90
15452;DHT22;7827;53.594;9.938;2022-12-18T04:14:06;-4.40;99.90
15452;DHT22;7827;53.594;9.938;2022-12-18T04:16:39;-4.30;99.90
15452;DHT22;7827;53.594;9.938;2022-12-18T04:19:10;-4.30;99.90
15452;DHT22;7827;53.594;9.938;2022-12-18T04:21:41;-4.30;99.90
15452;DHT22;7827;53.594;9.938;2022-12-18T04:24:11;-4.30;99.90
15452;DHT22;7827;53.594;9.938;2022-12-18T04:26:47;-4.30;99.90
15452;DHT22;7827;53.594;9.938;2022-12-18T04:29:17;-4.40;99.90
15452;DHT22;7827;53.594;9.938;2022-12-18T04:31:48;-4.40;99.90
15452;DHT22;7827;53.594;9.938;2022-12-18T04:34:16;-4.40;99.90
15452;DHT22;7827;53.594;9.938;2022-12-18T04:36:49;-4.40;99.90
15452;DHT22;7827;53.594;9.938;2022-12-18T04:39:17;-4.40;99.90
15452;DHT22;7827;53.594;9.938;2022-12-18T04:41:48;-4.40;99.90
15452;DHT22;7827;53.594;9.938;2022-12-18T04:44:17;-4.30;99.90
15452;DHT22;7827;53.594;9.938;2022-12-18T04:46:45;-4.30;99.90
15452;DHT22;7827;53.594;9.938;2022-12-18T04:49:15;-4.30;99.90
15452;DHT22;7827;53.594;9.938;2022-12-18T04:51:43;-4.40;99.90
15452;DHT22;7827;53.594;9.938;2022-12-18T04:54:11;-4.30;99.90
15452;DHT22;7827;53.594;9.938;2022-12-18T04:56:39;-4.30;99.90
15452;DHT22;7827;53.594;9.938;2022-12-18T04:59:07;-4.30;99.90
15452;DHT22;7827;53.594;9.938;2022-12-18T05:01:36;-4.40;99.90
15452;DHT22;7827;53.594;9.938;2022-12-18T05:04:04;-4.40;99.90
15452;DHT22;7827;53.594;9.938;2022-12-18T05:06:34;-4.40;99.90
15452;DHT22;7827;53.594;9.938;2022-12-18T05:09:02;-4.50;99.90
15452;DHT22;7827;53.594;9.938;2022-12-18T05:11:31;-4.50;99.90
15452;DHT22;7827;53.594;9.938;2022-12-18T05:14:00;-4.50;99.90
15452;DHT22;7827;53.594;9.938;2022-12-18T05:16:28;-4.50;99.90
15452;DHT22;7827;53.594;9.938;2022-12-18T05:18:56;-4.40;99.90
15452;DHT22;7827;53.594;9.938;2022-12-18T05:21:24;-4.40;99.90
15452;DHT22;7827;53.594;9.938;2022-12-18T05:23:54;-4.50;99.90
15452;DHT22;7827;53.594;9.938;2022-12-18T05:26:22;-4.60;99.90
15452;DHT22;7827;53.594;9.938;2022-12-18T05:28:50;-4.60;99.90
15452;DHT22;7827;53.594;9.938;2022-12-18T05:31:18;-4.70;99.90
15452;DHT22;7827;53.594;9.938;2022-12-18T05:33:47;-4.60;99.90
15452;DHT22;7827;53.594;9.938;2022-12-18T05:36:15;-4.50;99.90
15452;DHT22;7827;53.594;9.938;2022-12-18T05:38:43;-4.60;99.90
15452;DHT22;7827;53.594;9.938;2022-12-18T05:41:13;-4.60;99.90
15452;DHT22;7827;53.594;9.938;2022-12-18T05:43:41;-4.60;99.90
15452;DHT22;7827;53.594;9.938;2022-12-18T05:48:59;-4.50;99.90
15452;DHT22;7827;53.594;9.938;2022-12-18T05:51:27;-4.60;99.90
15452;DHT22;7827;53.594;9.938;2022-12-18T05:53:56;-4.60;99.90
15452;DHT22;7827;53.594;9.938;2022-12-18T05:56:25;-4.60;99.90
15452;DHT22;7827;53.594;9.938;2022-12-18T05:58:54;-4.70;99.90
15452;DHT22;7827;53.594;9.938;2022-12-18T06:01:24;-4.80;99.90
15452;DHT22;7827;53.594;9.938;2022-12-18T06:03:54;-4.70;99.90
15452;DHT22;7827;53.594;9.938;2022-12-18T06:06:24;-4.70;99.90
15452;DHT22;7827;53.594;9.938;2022-12-18T06:08:54;-4.70;99.90
15452;DHT22;7827;53.594;9.938;2022-12-18T06:11:26;-4.70;99.90
15452;DHT22;7827;53.594;9.938;2022-12-18T06:13:56;-4.70;99.90
15452;DHT22;7827;53.594;9.938;2022-12-18T06:16:27;-4.80;99.90
15452;DHT22;7827;53.594;9.938;2022-12-18T06:18:57;-4.80;99.90
15452;DHT22;7827;53.594;9.938;2022-12-18T06:21:26;-4.80;99.90
15452;DHT22;7827;53.594;9.938;2022-12-18T06:23:55;-4.80;99.90
15452;DHT22;7827;53.594;9.938;2022-12-18T06:26:25;-4.80;99.90
15452;DHT22;7827;53.594;9.938;2022-12-18T06:28:54;-4.80;99.90
15452;DHT22;7827;53.594;9.938;2022-12-18T06:31:24;-4.80;99.90
15452;DHT22;7827;53.594;9.938;2022-12-18T06:33:53;-4.80;99.90
15452;DHT22;7827;53.594;9.938;2022-12-18T06:36:22;-4.80;99.90
15452;DHT22;7827;53.594;9.938;2022-12-18T06:38:50;-4.80;99.90
15452;DHT22;7827;53.594;9.938;2022-12-18T06:41:20;-4.90;99.90
15452;DHT22;7827;53.594;9.938;2022-12-18T06:43:50;-4.80;99.90
15452;DHT22;7827;53.594;9.938;2022-12-18T06:46:25;-4.80;99.90
15452;DHT22;7827;53.594;9.938;2022-12-18T06:48:55;-4.80;99.90
15452;DHT22;7827;53.594;9.938;2022-12-18T06:51:24;-4.80;99.90
15452;DHT22;7827;53.594;9.938;2022-12-18T06:53:52;-4.70;99.90
15452;DHT22;7827;53.594;9.938;2022-12-18T06:56:20;-4.80;99.90
15452;DHT22;7827;53.594;9.938;2022-12-18T06:58:50;-4.80;99.90
15452;DHT22;7827;53.594;9.938;2022-12-18T07:01:19;-4.80;99.90
15452;DHT22;7827;53.594;9.938;2022-12-18T07:03:51;-4.80;99.90
15452;DHT22;7827;53.594;9.938;2022-12-18T07:06:22;-4.80;99.90
15452;DHT22;7827;53.594;9.938;2022-12-18T07:08:53;-4.80;99.90
15452;DHT22;7827;53.594;9.938;2022-12-18T07:11:22;-4.70;99.90
15452;DHT22;7827;53.594;9.938;2022-12-18T07:13:53;-4.80;99.90
15452;DHT22;7827;53.594;9.938;2022-12-18T07:16:21;-4.80;99.90
15452;DHT22;7827;53.594;9.938;2022-12-18T07:18:52;-4.70;99.90
15452;DHT22;7827;53.594;9.938;2022-12-18T07:21:23;-4.60;99.90
15452;DHT22;7827;53.594;9.938;2022-12-18T07:23:52;-4.60;99.90
15452;DHT22;7827;53.594;9.938;2022-12-18T07:26:21;-4.50;99.90
15452;DHT22;7827;53.594;9.938;2022-12-18T07:28:54;-4.50;99.90
15452;DHT22;7827;53.594;9.938;2022-12-18T07:31:26;-4.50;99.90
15452;DHT22;7827;53.594;9.938;2022-12-18T07:33:55;-4.50;99.90
15452;DHT22;7827;53.594;9.938;2022-12-18T07:36:23;-4.50;99.90
15452;DHT22;7827;53.594;9.938;2022-12-18T07:38:52;-4.40;99.90
15452;DHT22;7827;53.594;9.938;2022-12-18T07:41:20;-4.50;99.90
15452;DHT22;7827;53.594;9.938;2022-12-18T07:43:49;-4.50;99.90
15452;DHT22;7827;53.594;9.938;2022-12-18T07:46:21;-4.50;99.90
15452;DHT22;7827;53.594;9.938;2022-12-18T07:48:49;-4.50;99.90
15452;DHT22;7827;53.594;9.938;2022-12-18T07:51:18;-4.50;99.90
15452;DHT22;7827;53.594;9.938;2022-12-18T07:53:46;-4.60;99.90
15452;DHT22;7827;53.594;9.938;2022-12-18T07:56:18;-4.60;99.90
15452;DHT22;7827;53.594;9.938;2022-12-18T07:58:55;-4.70;99.90
15452;DHT22;7827;53.594;9.938;2022-12-18T08:01:25;-4.70;99.90
15452;DHT22;7827;53.594;9.938;2022-12-18T08:03:53;-4.60;99.90
15452;DHT22;7827;53.594;9.938;2022-12-18T08:06:22;-4.60;99.90
15452;DHT22;7827;53.594;9.938;2022-12-18T08:08:52;-4.60;99.90
15452;DHT22;7827;53.594;9.938;2022-12-18T08:11:21;-4.60;99.90
15452;DHT22;7827;53.594;9.938;2022-12-18T08:13:51;-4.60;99.90
15452;DHT22;7827;53.594;9.938;2022-12-18T08:16:19;-4.50;99.90
15452;DHT22;7827;53.594;9.938;2022-12-18T08:18:52;-4.50;99.90
15452;DHT22;7827;53.594;9.938;2022-12-18T08:21:22;-4.40;99.90
15452;DHT22;7827;53.594;9.938;2022-12-18T08:23:53;-4.30;99.90
15452;DHT22;7827;53.594;9.938;2022-12-18T08:26:24;-4.20;99.90
15452;DHT22;7827;53.594;9.938;2022-12-18T08:28:54;-4.20;99.90
15452;DHT22;7827;53.594;9.938;2022-12-18T08:31:25;-4.10;99.90
15452;DHT22;7827;53.594;9.938;2022-12-18T08:33:57;-4.10;99.90
15452;DHT22;7827;53.594;9.938;2022-12-18T08:36:25;-4.00;99.90
15452;DHT22;7827;53.594;9.938;2022-12-18T08:38:54;-4.00;99.90
15452;DHT22;7827;53.594;9.938;2022-12-18T08:41:23;-3.90;99.90
15452;DHT22;7827;53.594;9.938;2022-12-18T08:43:51;-3.90;99.90
15452;DHT22;7827;53.594;9.938;2022-12-18T08:46:38;-4.00;99.90
15452;DHT22;7827;53.594;9.938;2022-12-18T08:49:11;-3.90;99.90
15452;DHT22;7827;53.594;9.938;2022-12-18T08:51:39;-3.80;99.90
15452;DHT22;7827;53.594;9.938;2022-12-18T08:54:11;-3.70;99.90
15452;DHT22;7827;53.594;9.938;2022-12-18T08:56:40;-3.50;99.90
15452;DHT22;7827;53.594;9.938;2022-12-18T08:59:08;-3.50;99.90
15452;DHT22;7827;53.594;9.938;2022-12-18T09:01:45;-3.60;99.90
15452;DHT22;7827;53.594;9.938;2022-12-18T09:04:16;-3.60;99.90
15452;DHT22;7827;53.594;9.938;2022-12-18T09:06:44;-3.50;99.90
15452;DHT22;7827;53.594;9.938;2022-12-18T09:09:12;-3.50;99.90
15452;DHT22;7827;53.594;9.938;2022-12-18T09:11:41;-3.50;99.90
15452;DHT22;7827;53.594;9.938;2022-12-18T09:14:10;-3.50;99.90
15452;DHT22;7827;53.594;9.938;2022-12-18T09:16:38;-3.50;99.90
15452;DHT22;7827;53.594;9.938;2022-12-18T09:19:07;-3.40;99.90
15452;DHT22;7827;53.594;9.938;2022-12-18T09:21:36;-3.30;99.90
15452;DHT22;7827;53.594;9.938;2022-12-18T09:24:12;-3.20;99.90
15452;DHT22;7827;53.594;9.938;2022-12-18T09:26:41;-3.10;99.90
15452;DHT22;7827;53.594;9.938;2022-12-18T09:29:13;-3.10;99.90
15452;DHT22;7827;53.594;9.938;2022-12-18T09:31:44;-3.00;99.90
15452;DHT22;7827;53.594;9.938;2022-12-18T09:34:13;-2.90;99.90
15452;DHT22;7827;53.594;9.938;2022-12-18T09:36:43;-2.60;99.90
15452;DHT22;7827;53.594;9.938;2022-12-18T09:39:14;-2.40;99.90
15452;DHT22;7827;53.594;9.938;2022-12-18T09:41:46;-2.20;99.90
15452;DHT22;7827;53.594;9.938;2022-12-18T09:44:25;-1.90;99.90
15452;DHT22;7827;53.594;9.938;2022-12-18T09:47:08;-1.80;99.90
15452;DHT22;7827;53.594;9.938;2022-12-18T09:49:44;-1.90;99.90
15452;DHT22;7827;53.594;9.938;2022-12-18T09:52:19;-2.00;99.90
15452;DHT22;7827;53.594;9.938;2022-12-18T09:54:54;-2.20;99.90
15452;DHT22;7827;53.594;9.938;2022-12-18T09:57:29;-2.20;99.90
15452;DHT22;7827;53.594;9.938;2022-12-18T10:00:04;-2.30;99.90
15452;DHT22;7827;53.594;9.938;2022-12-18T10:02:40;-2.40;99.90
15452;DHT22;7827;53.594;9.938;2022-12-18T10:05:11;-2.40;99.90
15452;DHT22;7827;53.594;9.938;2022-12-18T10:07:50;-2.50;99.90
15452;DHT22;7827;53.594;9.938;2022-12-18T10:10:33;-2.40;99.90
15452;DHT22;7827;53.594;9.938;2022-12-18T10:13:15;-2.40;99.90
15452;DHT22;7827;53.594;9.938;2022-12-18T10:15:59;-2.40;99.90
15452;DHT22;7827;53.594;9.938;2022-12-18T10:19:02;-2.40;99.90
15452;DHT22;7827;53.594;9.938;2022-12-18T10:21:47;-2.40;99.90
15452;DHT22;7827;53.594;9.938;2022-12-18T10:24:31;-2.50;99.90
15452;DHT22;7827;53.594;9.938;2022-12-18T10:27:12;-2.40;99.90
15452;DHT22;7827;53.594;9.938;2022-12-18T10:29:44;-2.30;99.90
15452;DHT22;7827;53.594;9.938;2022-12-18T10:32:15;-2.30;99.90
15452;DHT22;7827;53.594;9.938;2022-12-18T10:34:46;-2.30;99.90
15452;DHT22;7827;53.594;9.938;2022-12-18T10:37:17;-2.40;99.90
15452;DHT22;7827;53.594;9.938;2022-12-18T10:40:06;-2.30;99.90
15452;DHT22;7827;53.594;9.938;2022-12-18T10:43:03;-2.30;99.90
15452;DHT22;7827;53.594;9.938;2022-12-18T10:45:34;-2.30;99.90
15452;DHT22;7827;53.594;9.938;2022-12-18T10:48:03;-2.20;99.90
15452;DHT22;7827;53.594;9.938;2022-12-18T10:50:34;-2.10;99.90
15452;DHT22;7827;53.594;9.938;2022-12-18T10:53:26;-2.10;99.90
15452;DHT22;7827;53.594;9.938;2022-12-18T10:55:58;-2.10;99.90
15452;DHT22;7827;53.594;9.938;2022-12-18T10:58:29;-2.00;99.90
15452;DHT22;7827;53.594;9.938;2022-12-18T11:01:17;-1.90;99.90
15452;DHT22;7827;53.594;9.938;2022-12-18T11:03:59;-1.80;99.90
15452;DHT22;7827;53.594;9.938;2022-12-18T11:06:29;-1.90;99.90
15452;DHT22;7827;53.594;9.938;2022-12-18T11:08:59;-1.80;99.90
15452;DHT22;7827;53.594;9.938;2022-12-18T11:11:40;-1.80;99.90
15452;DHT22;7827;53.594;9.938;2022-12-18T11:14:15;-1.70;99.90
15452;DHT22;7827;53.594;9.938;2022-12-18T11:16:50;-1.70;99.90
15452;DHT22;7827;53.594;9.938;2022-12-18T11:19:41;-1.60;99.90
15452;DHT22;7827;53.594;9.938;2022-12-18T11:22:19;-1.60;99.90
15452;DHT22;7827;53.594;9.938;2022-12-18T11:24:55;-1.60;99.90
15452;DHT22;7827;53.594;9.938;2022-12-18T11:27:51;-1.60;99.90
15452;DHT22;7827;53.594;9.938;2022-12-18T11:30:23;-1.70;99.90
15452;DHT22;7827;53.594;9.938;2022-12-18T11:32:56;-1.60;99.90
15452;DHT22;7827;53.594;9.938;2022-12-18T11:35:42;-1.60;99.90
15452;DHT22;7827;53.594;9.938;2022-12-18T11:38:20;-1.60;99.90
15452;DHT22;7827;53.594;9.938;2022-12-18T11:40:58;-1.70;99.90
15452;DHT22;7827;53.594;9.938;2022-12-18T11:43:33;-1.80;99.90
15452;DHT22;7827;53.594;9.938;2022-12-18T11:46:11;-1.80;99.90
15452;DHT22;7827;53.594;9.938;2022-12-18T11:48:49;-1.70;99.90
15452;DHT22;7827;53.594;9.938;2022-12-18T11:51:26;-1.60;99.90
15452;DHT22;7827;53.594;9.938;2022-12-18T11:54:00;-1.50;99.90
15452;DHT22;7827;53.594;9.938;2022-12-18T11:56:32;-1.50;99.90
15452;DHT22;7827;53.594;9.938;2022-12-18T11:59:13;-1.50;99.90
15452;DHT22;7827;53.594;9.938;2022-12-18T12:01:52;-1.40;99.90
15452;DHT22;7827;53.594;9.938;2022-12-18T12:05:02;-1.40;99.90
15452;DHT22;7827;53.594;9.938;2022-12-18T12:07:49;-1.40;99.90
15452;DHT22;7827;53.594;9.938;2022-12-18T12:10:33;-1.40;99.90
15452;DHT22;7827;53.594;9.938;2022-12-18T12:13:21;-1.40;99.90
15452;DHT22;7827;53.594;9.938;2022-12-18T12:16:08;-1.40;99.90
15452;DHT22;7827;53.594;9.938;2022-12-18T12:19:02;-1.40;99.90
15452;DHT22;7827;53.594;9.938;2022-12-18T12:21:40;-1.40;99.90
15452;DHT22;7827;53.594;9.938;2022-12-18T12:24:24;-1.40;99.90
15452;DHT22;7827;53.594;9.938;2022-12-18T12:27:10;-1.40;99.90
15452;DHT22;7827;53.594;9.938;2022-12-18T12:29:58;-1.40;99.90
15452;DHT22;7827;53.594;9.938;2022-12-18T12:32:46;-1.40;99.90
15452;DHT22;7827;53.594;9.938;2022-12-18T12:35:32;-1.40;99.90
15452;DHT22;7827;53.594;9.938;2022-12-18T12:38:13;-1.50;99.90
15452;DHT22;7827;53.594;9.938;2022-12-18T12:40:47;-1.50;99.90
15452;DHT22;7827;53.594;9.938;2022-12-18T12:43:34;-1.50;99.90
15452;DHT22;7827;53.594;9.938;2022-12-18T12:46:13;-1.50;99.90
15452;DHT22;7827;53.594;9.938;2022-12-18T12:48:49;-1.50;99.90
15452;DHT22;7827;53.594;9.938;2022-12-18T12:51:21;-1.40;99.90
15452;DHT22;7827;53.594;9.938;2022-12-18T12:53:55;-1.40;99.90
15452;DHT22;7827;53.594;9.938;2022-12-18T12:56:31;-1.30;99.90
15452;DHT22;7827;53.594;9.938;2022-12-18T12:59:11;-1.30;99.90
15452;DHT22;7827;53.594;9.938;2022-12-18T13:01:51;-1.20;99.90
15452;DHT22;7827;53.594;9.938;2022-12-18T13:04:33;-1.20;99.90
15452;DHT22;7827;53.594;9.938;2022-12-18T13:07:10;-1.20;99.90
15452;DHT22;7827;53.594;9.938;2022-12-18T13:10:12;-1.20;99.90
15452;DHT22;7827;53.594;9.938;2022-12-18T13:12:57;-1.20;99.90
15452;DHT22;7827;53.594;9.938;2022-12-18T13:15:34;-1.30;99.90
15452;DHT22;7827;53.594;9.938;2022-12-18T13:18:18;-1.20;99.90
15452;DHT22;7827;53.594;9.938;2022-12-18T13:21:01;-1.20;99.90
15452;DHT22;7827;53.594;9.938;2022-12-18T13:23:35;-1.10;99.90
15452;DHT22;7827;53.594;9.938;2022-12-18T13:26:28;-1.20;99.90
15452;DHT22;7827;53.594;9.938;2022-12-18T13:29:00;-1.20;99.90
15452;DHT22;7827;53.594;9.938;2022-12-18T13:38:21;-1.40;99.90
15452;DHT22;7827;53.594;9.938;2022-12-18T13:40:55;-1.50;99.90
15452;DHT22;7827;53.594;9.938;2022-12-18T13:43:41;-1.60;99.90
15452;DHT22;7827;53.594;9.938;2022-12-18T13:46:24;-1.70;99.90
15452;DHT22;7827;53.594;9.938;2022-12-18T13:48:58;-1.60;99.90
15452;DHT22;7827;53.594;9.938;2022-12-18T13:51:32;-1.70;99.90
15452;DHT22;7827;53.594;9.938;2022-12-18T13:54:18;-1.70;99.90
15452;DHT22;7827;53.594;9.938;2022-12-18T13:56:49;-1.80;99.90
15452;DHT22;7827;53.594;9.938;2022-12-18T13:59:21;-1.80;99.90
15452;DHT22;7827;53.594;9.938;2022-12-18T14:01:54;-1.90;99.90
15452;DHT22;7827;53.594;9.938;2022-12-18T14:04:26;-1.90;99.90
15452;DHT22;7827;53.594;9.938;2022-12-18T14:07:01;-2.00;99.90
15452;DHT22;7827;53.594;9.938;2022-12-18T14:09:37;-2.00;99.90
15452;DHT22;7827;53.594;9.938;2022-12-18T14:12:15;-2.10;99.90
15452;DHT22;7827;53.594;9.938;2022-12-18T14:15:05;-2.10;99.90
15452;DHT22;7827;53.594;9.938;2022-12-18T14:17:43;-2.10;99.90
15452;DHT22;7827;53.594;9.938;2022-12-18T14:20:13;-2.20;99.90
15452;DHT22;7827;53.594;9.938;2022-12-18T14:22:43;-2.10;99.90
15452;DHT22;7827;53.594;9.938;2022-12-18T14:25:19;-2.20;99.90
15452;DHT22;7827;53.594;9.938;2022-12-18T14:27:51;-2.20;99.90
15452;DHT22;7827;53.594;9.938;2022-12-18T14:30:25;-2.20;99.90
15452;DHT22;7827;53.594;9.938;2022-12-18T14:33:04;-2.20;99.90
15452;DHT22;7827;53.594;9.938;2022-12-18T14:35:36;-2.30;99.90
15452;DHT22;7827;53.594;9.938;2022-12-18T14:38:20;-2.30;99.90
15452;DHT22;7827;53.594;9.938;2022-12-18T14:40:56;-2.10;99.90
15452;DHT22;7827;53.594;9.938;2022-12-18T14:43:26;-2.30;99.90
15452;DHT22;7827;53.594;9.938;2022-12-18T14:45:56;-2.40;99.90
15452;DHT22;7827;53.594;9.938;2022-12-18T14:48:35;-2.40;99.90
15452;DHT22;7827;53.594;9.938;2022-12-18T14:51:12;-2.50;99.90
15452;DHT22;7827;53.594;9.938;2022-12-18T14:53:45;-2.50;99.90
15452;DHT22;7827;53.594;9.938;2022-12-18T14:56:23;-2.60;99.90
15452;DHT22;7827;53.594;9.938;2022-12-18T14:58:54;-2.50;99.90
15452;DHT22;7827;53.594;9.938;2022-12-18T15:01:26;-2.50;99.90
15452;DHT22;7827;53.594;9.938;2022-12-18T15:03:58;-2.60;99.90
15452;DHT22;7827;53.594;9.938;2022-12-18T15:06:31;-2.60;99.90
15452;DHT22;7827;53.594;9.938;2022-12-18T15:09:02;-2.60;99.90
15452;DHT22;7827;53.594;9.938;2022-12-18T15:11:35;-2.60;99.90
15452;DHT22;7827;53.594;9.938;2022-12-18T15:14:23;-2.70;99.90
15452;DHT22;7827;53.594;9.938;2022-12-18T15:16:59;-2.70;99.90
15452;DHT22;7827;53.594;9.938;2022-12-18T15:19:35;-2.70;99.90
15452;DHT22;7827;53.594;9.938;2022-12-18T15:22:18;-2.70;99.90
15452;DHT22;7827;53.594;9.938;2022-12-18T15:24:50;-2.70;99.90
15452;DHT22;7827;53.594;9.938;2022-12-18T15:27:26;-2.80;99.90
15452;DHT22;7827;53.594;9.938;2022-12-18T15:30:01;-2.80;99.90
15452;DHT22;7827;53.594;9.938;2022-12-18T15:32:43;-2.80;99.90
15452;DHT22;7827;53.594;9.938;2022-12-18T15:35:20;-2.80;99.90
15452;DHT22;7827;53.594;9.938;2022-12-18T15:37:50;-2.80;99.90
15452;DHT22;7827;53.594;9.938;2022-12-18T15:40:20;-2.90;99.90
15452;DHT22;7827;53.594;9.938;2022-12-18T15:42:53;-2.80;99.90
15452;DHT22;7827;53.594;9.938;2022-12-18T15:45:40;-2.80;99.90
15452;DHT22;7827;53.594;9.938;2022-12-18T15:48:19;-2.80;99.90
15452;DHT22;7827;53.594;9.938;2022-12-18T15:50:50;-2.80;99.90
15452;DHT22;7827;53.594;9.938;2022-12-18T15:53:22;-2.80;99.90
15452;DHT22;7827;53.594;9.938;2022-12-18T15:55:51;-2.80;99.90
15452;DHT22;7827;53.594;9.938;2022-12-18T15:58:39;-2.80;99.90
15452;DHT22;7827;53.594;9.938;2022-12-18T16:01:08;-2.80;99.90
15452;DHT22;7827;53.594;9.938;2022-12-18T16:03:38;-2.70;99.90
15452;DHT22;7827;53.594;9.938;2022-12-18T16:06:09;-2.70;99.90
15452;DHT22;7827;53.594;9.938;2022-12-18T16:08:38;-2.70;99.90
15452;DHT22;7827;53.594;9.938;2022-12-18T16:11:11;-2.70;99.90
15452;DHT22;7827;53.594;9.938;2022-12-18T16:14:16;-2.60;99.90
15452;DHT22;7827;53.594;9.938;2022-12-18T16:16:47;-2.60;99.90
15452;DHT22;7827;53.594;9.938;2022-12-18T16:19:17;-2.70;99.90
15452;DHT22;7827;53.594;9.938;2022-12-18T16:21:46;-2.80;99.90
15452;DHT22;7827;53.594;9.938;2022-12-18T16:24:17;-2.70;99.90
15452;DHT22;7827;53.594;9.938;2022-12-18T16:26:48;-2.70;99.90
15452;DHT22;7827;53.594;9.938;2022-12-18T16:29:20;-2.80;99.90
15452;DHT22;7827;53.594;9.938;2022-12-18T16:31:53;-2.80;99.90
15452;DHT22;7827;53.594;9.938;2022-12-18T16:34:23;-2.80;99.90
15452;DHT22;7827;53.594;9.938;2022-12-18T16:36:56;-2.80;99.90